Time;durP1;ratioP1;P1;durP2;ratioP2;P2;SDS_P1;SDS_P2;PMS_P1;PMS_P2;Temp;Humidity;BMP_temperature;BMP_pressure;BME280_temperature;BME280_humidity;BME280_pressure;Samples;Min_cycle;Max_cycle;Signal;HPM_P1;HPM_P2
2023/07/05 00:01:57;;;;;;;0.40;0.40;;;;;;;18.13;71.25;100403.38;5108612;28;20020;-81
2023/07/05 00:04:23;;;;;;;3.83;1.17;;;;;;;18.18;70.16;100390.56;5118702;28;20032;-80
2023/07/05 00:06:53;;;;;;;0.10;0.10;;;;;;;18.18;70.42;100417.38;5107853;28;20045;-81
2023/07/05 00:09:19;;;;;;;0.05;0.05;;;;;;;18.16;70.94;100412.09;5124207;28;20030;-79
2023/07/05 00:11:46;;;;;;;1.27;1.27;;;;;;;18.21;70.69;100395.75;5127865;28;20042;-81
2023/07/05 00:14:12;;;;;;;1.85;0.55;;;;;;;18.21;70.94;100390.41;5119579;28;20036;-81
2023/07/05 00:16:38;;;;;;;0.10;0.10;;;;;;;18.19;71.62;100377.06;5105009;28;20021;-81
2023/07/05 00:19:07;;;;;;;0.85;0.85;;;;;;;18.24;71.45;100368.75;5117895;28;20035;-81
2023/07/05 00:21:34;;;;;;;0.63;0.63;;;;;;;18.28;70.89;100359.59;5105390;28;20125;-82
2023/07/05 00:24:00;;;;;;;0.45;0.45;;;;;;;18.26;71.32;100345.41;5103832;28;20024;-81
2023/07/05 00:26:26;;;;;;;0.00;0.00;;;;;;;18.27;71.03;100339.09;5106045;28;20036;-81
2023/07/05 00:28:52;;;;;;;0.55;0.55;;;;;;;18.24;71.88;100336.56;5104354;28;20051;-79
2023/07/05 00:31:18;;;;;;;0.40;0.40;;;;;;;18.27;71.26;100331.03;5105767;28;20122;-80
2023/07/05 00:33:44;;;;;;;0.10;0.10;;;;;;;18.23;71.66;100313.38;5112963;28;20028;-82
2023/07/05 00:36:10;;;;;;;3.72;0.65;;;;;;;18.22;72.12;100300.97;5104133;28;20036;-78
2023/07/05 00:38:37;;;;;;;0.10;0.10;;;;;;;18.21;72.37;100284.00;5105591;28;20091;-80
2023/07/05 00:41:03;;;;;;;0.10;0.10;;;;;;;18.20;72.58;100282.25;5113545;28;20036;-78
2023/07/05 00:43:29;;;;;;;0.00;0.00;;;;;;;18.24;72.41;100282.94;5116283;28;20028;-77
2023/07/05 00:45:59;;;;;;;0.08;0.08;;;;;;;18.19;73.06;100274.31;5106375;28;20038;-76
2023/07/05 00:48:47;;;;;;;0.10;0.10;;;;;;;18.24;73.10;100259.69;5118058;28;20035;-77
2023/07/05 00:51:40;;;;;;;0.10;0.10;;;;;;;18.22;73.34;100250.00;5114787;28;20602;-77
2023/07/05 00:54:06;;;;;;;0.10;0.10;;;;;;;18.15;73.95;100240.63;5103415;28;20096;-79
2023/07/05 00:59:19;;;;;;;0.60;0.60;;;;;;;18.21;73.75;100237.56;5057831;28;20412;-79
2023/07/05 01:01:45;;;;;;;0.57;0.57;;;;;;;18.19;74.27;100228.75;5058534;28;20196;-80
2023/07/05 01:04:11;;;;;;;0.15;0.15;;;;;;;18.17;74.65;100218.13;5058192;28;20025;-79
2023/07/05 01:06:39;;;;;;;0.10;0.10;;;;;;;18.17;74.24;100219.91;5059486;28;20117;-79
2023/07/05 01:09:06;;;;;;;1.25;0.40;;;;;;;18.18;74.62;100221.66;5056392;28;20033;-80
2023/07/05 01:14:24;;;;;;;0.22;0.22;;;;;;;18.24;75.03;100223.94;5075600;28;20956;-80
2023/07/05 01:17:07;;;;;;;2.05;1.02;;;;;;;18.27;75.13;100239.84;5071885;28;20056;-81
2023/07/05 01:20:04;;;;;;;0.10;0.10;;;;;;;18.21;76.16;100250.97;5057257;28;20043;-80
2023/07/05 01:23:03;;;;;;;0.10;0.10;;;;;;;18.22;76.13;100231.25;5054697;28;20021;-81
2023/07/05 01:26:01;;;;;;;0.00;0.00;;;;;;;18.32;75.33;100216.28;5052568;28;20029;-81
2023/07/05 01:34:22;;;;;;;0.10;0.10;;;;;;;18.14;73.07;100212.06;5104019;28;20352;-78
2023/07/05 01:36:52;;;;;;;0.07;0.07;;;;;;;18.08;71.91;100202.59;5082318;28;20076;-79
2023/07/05 01:39:18;;;;;;;0.05;0.05;;;;;;;18.03;72.31;100216.28;5080054;28;20071;-79
2023/07/05 01:41:45;;;;;;;0.55;0.55;;;;;;;18.03;72.92;100210.94;5079650;28;20032;-80
2023/07/05 01:44:15;;;;;;;0.20;0.20;;;;;;;18.07;72.82;100215.13;5076368;28;20036;-80
2023/07/05 01:46:57;;;;;;;0.08;0.08;;;;;;;17.94;71.36;100223.06;5072096;28;20100;-80
2023/07/05 01:57:31;;;;;;;0.10;0.10;;;;;;;17.80;69.23;100233.72;5105191;28;20413;-81
2023/07/05 02:00:05;;;;;;;0.30;0.30;;;;;;;17.74;69.42;100242.97;5096036;28;20065;-82
2023/07/05 02:02:37;;;;;;;0.00;0.00;;;;;;;17.53;69.41;100247.78;5095091;28;20024;-82
2023/07/05 02:05:06;;;;;;;0.00;0.00;;;;;;;17.40;69.40;100244.97;5112109;28;20024;-81
2023/07/05 02:07:33;;;;;;;1.60;0.50;;;;;;;17.42;68.99;100248.44;5100323;28;20024;-80
2023/07/05 02:09:59;;;;;;;0.00;0.00;;;;;;;17.44;68.99;100251.88;5115989;28;20020;-81
2023/07/05 02:12:26;;;;;;;0.10;0.10;;;;;;;17.32;69.40;100241.91;5100235;28;20058;-82
2023/07/05 02:14:52;;;;;;;0.00;0.00;;;;;;;17.21;69.37;100260.38;5093879;28;20051;-80
2023/07/05 02:17:20;;;;;;;0.52;0.52;;;;;;;17.06;69.65;100246.91;5091156;28;20037;-81
2023/07/05 02:19:46;;;;;;;0.10;0.10;;;;;;;17.09;69.66;100268.16;5093403;28;20035;-81
2023/07/05 02:22:13;;;;;;;0.10;0.10;;;;;;;16.95;69.89;100271.59;5092435;28;20036;-81
2023/07/05 02:24:39;;;;;;;0.10;0.10;;;;;;;16.95;69.87;100247.53;5085086;28;20403;-81
2023/07/05 02:27:05;;;;;;;0.05;0.05;;;;;;;16.85;69.84;100248.09;5093108;28;20035;-80
2023/07/05 02:29:32;;;;;;;0.45;0.45;;;;;;;16.85;69.80;100250.75;5097148;28;20073;-82
2023/07/05 02:31:58;;;;;;;0.13;0.13;;;;;;;16.84;69.57;100252.56;5090533;28;20399;-81
2023/07/05 02:34:25;;;;;;;0.10;0.10;;;;;;;16.68;69.23;100268.59;5081090;28;20032;-81
2023/07/05 02:36:51;;;;;;;0.08;0.08;;;;;;;16.72;68.70;100254.09;5086659;28;20056;-81
2023/07/05 02:39:17;;;;;;;0.63;0.63;;;;;;;16.70;68.43;100256.03;5090710;28;20063;-80
2023/07/05 02:41:43;;;;;;;0.50;0.50;;;;;;;16.65;68.47;100268.78;5097454;28;20028;-80
2023/07/05 02:44:10;;;;;;;0.30;0.30;;;;;;;16.64;68.13;100261.72;5081824;28;20388;-81
2023/07/05 02:46:36;;;;;;;0.00;0.00;;;;;;;16.48;68.17;100262.53;5086272;28;20046;-80
2023/07/05 02:49:03;;;;;;;0.25;0.25;;;;;;;16.48;68.08;100248.31;5100422;28;20515;-81
2023/07/05 02:51:29;;;;;;;0.10;0.10;;;;;;;16.44;67.57;100254.78;5090322;28;20036;-80
2023/07/05 02:53:55;;;;;;;0.00;0.00;;;;;;;16.34;68.54;100244.56;5091247;28;20028;-80
2023/07/05 02:56:22;;;;;;;0.00;0.00;;;;;;;16.50;67.61;100251.78;5093976;28;20479;-81
2023/07/05 02:58:48;;;;;;;0.10;0.10;;;;;;;16.47;67.43;100242.09;5088474;28;20517;-81
2023/07/05 03:01:14;;;;;;;0.10;0.10;;;;;;;16.50;67.88;100239.25;5084279;28;20110;-80
2023/07/05 03:03:40;;;;;;;0.00;0.00;;;;;;;16.50;67.40;100249.94;5108718;28;20051;-81
2023/07/05 03:06:06;;;;;;;0.03;0.03;;;;;;;16.38;67.68;100229.22;5098045;28;20099;-81
2023/07/05 03:08:32;;;;;;;0.10;0.10;;;;;;;16.50;67.52;100238.41;5080080;28;20436;-81
2023/07/05 03:11:00;;;;;;;0.10;0.10;;;;;;;16.38;67.72;100234.56;5072168;28;20085;-82
2023/07/05 03:13:30;;;;;;;0.30;0.30;;;;;;;16.45;67.90;100235.13;5062922;28;20495;-81
2023/07/05 03:15:57;;;;;;;0.10;0.10;;;;;;;16.38;68.07;100218.53;5059905;28;20032;-81
2023/07/05 03:18:23;;;;;;;0.00;0.00;;;;;;;16.34;68.00;100233.00;5082741;28;20036;-82
2023/07/05 03:20:50;;;;;;;0.32;0.32;;;;;;;16.41;67.70;100204.13;5092505;28;20024;-81
2023/07/05 03:23:16;;;;;;;0.10;0.10;;;;;;;16.62;67.78;100224.34;5080504;28;20039;-81
2023/07/05 03:25:56;;;;;;;0.00;0.00;;;;;;;16.65;67.40;100220.66;5083280;28;20021;-82
2023/07/05 03:28:23;;;;;;;0.25;0.25;;;;;;;16.41;67.45;100209.47;5083006;28;20503;-82
2023/07/05 03:30:56;;;;;;;0.00;0.00;;;;;;;16.64;67.32;100219.75;5072681;28;20046;-82
2023/07/05 03:33:23;;;;;;;0.10;0.10;;;;;;;16.45;67.89;100230.63;5070517;28;20044;-82
2023/07/05 03:35:58;;;;;;;0.10;0.10;;;;;;;16.56;67.44;100211.31;5073116;28;20394;-82
2023/07/05 03:38:26;;;;;;;0.10;0.10;;;;;;;16.48;67.52;100209.03;5083829;28;20089;-81
2023/07/05 03:41:02;;;;;;;0.82;0.82;;;;;;;16.69;67.44;100203.47;5082766;28;20052;-82
2023/07/05 03:43:30;;;;;;;0.30;0.30;;;;;;;16.60;67.24;100201.31;5081781;28;20485;-82
2023/07/05 03:45:59;;;;;;;0.10;0.10;;;;;;;16.61;67.56;100200.34;5074847;28;20036;-83
2023/07/05 03:48:28;;;;;;;0.10;0.10;;;;;;;16.46;66.95;100196.72;5089434;28;20469;-80
2023/07/05 03:50:56;;;;;;;0.10;0.10;;;;;;;16.47;67.50;100212.69;5069632;28;20028;-82
2023/07/05 03:53:23;;;;;;;0.40;0.40;;;;;;;16.45;67.62;100208.38;5072816;28;20032;-80
2023/07/05 03:55:49;;;;;;;0.03;0.03;;;;;;;16.43;67.22;100199.56;5072978;28;20065;-82
2023/07/05 03:58:16;;;;;;;0.00;0.00;;;;;;;16.42;67.20;100192.50;5069273;28;20295;-82
2023/07/05 04:00:42;;;;;;;0.10;0.10;;;;;;;16.39;66.78;100190.00;5073328;28;20185;-81
2023/07/05 04:03:08;;;;;;;0.10;0.10;;;;;;;16.38;66.38;100186.44;5085370;28;20036;-81
2023/07/05 04:05:35;;;;;;;0.10;0.10;;;;;;;16.49;66.27;100188.53;5085224;28;20391;-81
2023/07/05 04:08:01;;;;;;;0.28;0.28;;;;;;;16.58;66.22;100187.16;5095948;28;20081;-81
2023/07/05 04:10:28;;;;;;;0.75;0.75;;;;;;;16.57;66.48;100196.13;5097458;28;20036;-81
2023/07/05 04:12:54;;;;;;;0.00;0.00;;;;;;;16.44;66.89;100185.25;5069906;28;20066;-81
2023/07/05 04:15:20;;;;;;;0.10;0.10;;;;;;;16.50;67.25;100184.91;5078639;28;20028;-81
2023/07/05 04:17:46;;;;;;;0.75;0.75;;;;;;;16.30;68.70;100208.25;5096899;28;20473;-80
2023/07/05 04:20:12;;;;;;;0.00;0.00;;;;;;;16.21;68.98;100240.81;5081054;28;20028;-80
2023/07/05 04:22:40;;;;;;;0.75;0.75;;;;;;;15.93;71.12;100249.44;5082740;28;20028;-80
2023/07/05 04:25:07;;;;;;;0.20;0.20;;;;;;;15.97;70.50;100230.47;5079283;28;20025;-78
2023/07/05 04:27:33;;;;;;;0.10;0.10;;;;;;;15.80;71.41;100238.47;5079136;28;20047;-80
2023/07/05 04:29:59;;;;;;;0.52;0.52;;;;;;;15.75;72.68;100230.72;5081027;28;20030;-80
2023/07/05 04:32:26;;;;;;;0.95;0.95;;;;;;;15.64;73.08;100236.59;5082127;28;20033;-80
2023/07/05 04:34:52;;;;;;;0.10;0.10;;;;;;;15.54;73.47;100232.69;5062933;28;20033;-79
2023/07/05 04:37:18;;;;;;;0.10;0.10;;;;;;;15.56;73.21;100225.44;5064578;28;20029;-78
2023/07/05 04:39:44;;;;;;;0.00;0.00;;;;;;;15.49;73.41;100232.91;5065009;28;20040;-80
2023/07/05 04:42:10;;;;;;;0.00;0.00;;;;;;;15.48;73.44;100228.50;5069309;28;20040;-80
2023/07/05 04:44:36;;;;;;;4.88;3.17;;;;;;;15.58;73.24;100222.72;5049739;28;20028;-80
2023/07/05 04:47:02;;;;;;;0.28;0.28;;;;;;;15.62;73.10;100225.13;5070982;28;20088;-80
2023/07/05 04:49:28;;;;;;;0.10;0.10;;;;;;;15.60;73.03;100226.13;5085658;28;20039;-80
2023/07/05 04:51:54;;;;;;;0.00;0.00;;;;;;;15.62;73.48;100221.59;5087498;28;20043;-80
2023/07/05 04:54:20;;;;;;;0.08;0.08;;;;;;;15.64;73.64;100203.69;5090343;28;20280;-80
2023/07/05 04:56:46;;;;;;;0.10;0.10;;;;;;;15.64;73.59;100217.91;5094261;28;20035;-80
2023/07/05 04:59:12;;;;;;;0.30;0.30;;;;;;;15.60;73.57;100226.13;5081697;28;20105;-80
2023/07/05 05:01:39;;;;;;;0.20;0.20;;;;;;;15.49;73.08;100235.56;5081499;28;20036;-80
2023/07/05 05:04:06;;;;;;;0.10;0.10;;;;;;;15.43;73.04;100243.88;5077192;28;20047;-80
2023/07/05 05:06:32;;;;;;;0.10;0.10;;;;;;;15.52;73.09;100239.88;5084407;28;20012;-79
2023/07/05 05:08:58;;;;;;;0.10;0.10;;;;;;;15.47;72.77;100248.13;5084687;28;20042;-80
2023/07/05 05:11:26;;;;;;;0.10;0.10;;;;;;;15.54;72.86;100254.03;5076674;28;20025;-80
2023/07/05 05:13:53;;;;;;;0.70;0.70;;;;;;;15.41;72.87;100243.09;5065934;28;20028;-79
2023/07/05 05:16:19;;;;;;;0.08;0.08;;;;;;;15.42;72.40;100244.81;5070185;28;20094;-80
2023/07/05 05:18:45;;;;;;;0.05;0.05;;;;;;;15.35;71.85;100235.38;5084313;28;20036;-80
2023/07/05 05:21:11;;;;;;;0.32;0.32;;;;;;;15.40;71.43;100246.69;5084231;28;20036;-80
2023/07/05 05:23:37;;;;;;;0.10;0.10;;;;;;;15.41;71.11;100243.09;5080952;28;20056;-79
2023/07/05 05:26:04;;;;;;;0.00;0.00;;;;;;;15.31;69.97;100236.47;5079195;28;20134;-80
2023/07/05 05:28:30;;;;;;;0.10;0.10;;;;;;;15.22;69.66;100242.28;5074952;28;20407;-80
2023/07/05 05:31:07;;;;;;;0.10;0.10;;;;;;;15.19;68.30;100245.97;5078237;28;20036;-80
2023/07/05 05:33:34;;;;;;;1.38;0.70;;;;;;;15.07;67.61;100255.41;5078746;28;20451;-79
2023/07/05 05:36:01;;;;;;;0.38;0.38;;;;;;;15.04;67.40;100256.44;5091542;28;20127;-81
2023/07/05 05:38:27;;;;;;;0.10;0.10;;;;;;;15.11;66.97;100251.66;5096146;28;20388;-81
2023/07/05 05:41:01;;;;;;;0.10;0.10;;;;;;;14.97;67.88;100272.81;5096741;28;20020;-80
2023/07/05 05:43:27;;;;;;;0.10;0.10;;;;;;;14.63;69.59;100287.66;5067121;28;20032;-80
2023/07/05 05:45:53;;;;;;;0.10;0.10;;;;;;;14.69;69.97;100298.09;5077551;28;20025;-80
2023/07/05 05:48:19;;;;;;;0.03;0.03;;;;;;;14.33;70.72;100296.13;5082731;28;20066;-78
2023/07/05 05:50:47;;;;;;;0.10;0.10;;;;;;;14.24;70.73;100302.72;5089402;28;20033;-79
2023/07/05 05:53:13;;;;;;;2.83;1.08;;;;;;;14.14;71.47;100299.59;5084149;28;20390;-80
2023/07/05 05:55:40;;;;;;;0.10;0.10;;;;;;;13.98;72.09;100322.50;5075056;28;20021;-78
2023/07/05 05:58:08;;;;;;;0.00;0.00;;;;;;;13.90;72.35;100307.72;5070813;28;20127;-80
2023/07/05 06:00:34;;;;;;;0.10;0.10;;;;;;;13.93;72.34;100303.19;5064189;28;20028;-78
2023/07/05 06:03:01;;;;;;;0.47;0.47;;;;;;;13.74;73.57;100288.88;5081476;28;20043;-79
2023/07/05 06:05:27;;;;;;;0.22;0.22;;;;;;;13.73;73.47;100315.53;5078641;28;20032;-80
2023/07/05 06:07:54;;;;;;;0.50;0.50;;;;;;;13.54;73.13;100313.63;5079715;28;20394;-80
2023/07/05 06:10:22;;;;;;;0.10;0.10;;;;;;;13.38;73.50;100299.22;5069897;28;20113;-80
2023/07/05 06:12:48;;;;;;;0.10;0.10;;;;;;;13.46;73.77;100305.13;5067284;28;20401;-81
2023/07/05 06:15:14;;;;;;;0.10;0.10;;;;;;;13.36;73.56;100301.94;5081067;28;20062;-79
2023/07/05 06:17:41;;;;;;;0.10;0.10;;;;;;;13.36;74.02;100293.09;5070796;28;20054;-80
2023/07/05 06:20:10;;;;;;;0.10;0.10;;;;;;;13.29;74.52;100313.72;5080186;28;20040;-81
2023/07/05 06:22:36;;;;;;;0.10;0.10;;;;;;;13.42;74.67;100293.72;5075890;28;20100;-79
2023/07/05 06:25:03;;;;;;;0.25;0.25;;;;;;;13.37;74.92;100279.75;5081235;28;20035;-80
2023/07/05 06:27:29;;;;;;;0.10;0.10;;;;;;;13.47;74.72;100290.00;5058400;28;20134;-81
2023/07/05 06:29:55;;;;;;;0.20;0.20;;;;;;;13.32;75.37;100286.13;5063989;28;20033;-79
2023/07/05 06:32:22;;;;;;;0.10;0.10;;;;;;;13.41;75.56;100292.00;5073618;28;20040;-82
2023/07/05 06:34:49;;;;;;;0.10;0.10;;;;;;;13.43;75.62;100299.91;5085227;28;20035;-81
2023/07/05 06:37:16;;;;;;;0.10;0.10;;;;;;;13.43;75.81;100305.22;5069083;28;20036;-80
2023/07/05 06:39:42;;;;;;;0.10;0.10;;;;;;;13.51;76.13;100297.81;5082427;28;20094;-80
2023/07/05 06:42:09;;;;;;;0.98;0.98;;;;;;;13.45;77.09;100311.34;5081309;28;20511;-80
2023/07/05 06:44:35;;;;;;;0.10;0.10;;;;;;;13.52;76.53;100325.28;5086923;28;20032;-81
2023/07/05 06:47:01;;;;;;;0.10;0.10;;;;;;;13.58;77.34;100307.28;5076983;28;20033;-81
2023/07/05 06:49:27;;;;;;;0.10;0.10;;;;;;;13.66;78.05;100295.44;5078663;28;20127;-81
2023/07/05 06:51:54;;;;;;;0.10;0.10;;;;;;;13.78;77.39;100316.22;5081178;28;20032;-81
2023/07/05 06:54:21;;;;;;;0.10;0.10;;;;;;;13.78;78.62;100328.66;5090096;28;20043;-83
2023/07/05 06:56:47;;;;;;;0.10;0.10;;;;;;;13.81;77.96;100337.41;5074533;28;20031;-81
2023/07/05 06:59:13;;;;;;;0.43;0.43;;;;;;;13.66;78.63;100351.34;5082100;28;20040;-81
2023/07/05 07:01:39;;;;;;;0.28;0.28;;;;;;;13.95;77.19;100346.63;5080249;28;20033;-81
2023/07/05 07:04:06;;;;;;;2.65;1.38;;;;;;;13.95;78.12;100349.28;5072041;28;20064;-82
2023/07/05 07:06:34;;;;;;;0.28;0.28;;;;;;;14.08;77.03;100362.00;5080324;28;20020;-82
2023/07/05 07:09:04;;;;;;;0.10;0.10;;;;;;;14.03;77.40;100374.66;5079139;28;20025;-82
2023/07/05 07:11:31;;;;;;;0.10;0.10;;;;;;;14.08;76.87;100353.13;5071602;28;20033;-80
2023/07/05 07:13:57;;;;;;;0.30;0.30;;;;;;;13.96;76.91;100383.84;5092449;28;20039;-81
2023/07/05 07:16:23;;;;;;;0.10;0.10;;;;;;;13.95;76.99;100397.22;5067725;28;20029;-81
2023/07/05 07:18:50;;;;;;;0.00;0.00;;;;;;;13.95;77.83;100386.56;5082023;28;20498;-82
2023/07/05 07:21:19;;;;;;;0.10;0.10;;;;;;;14.01;77.29;100396.97;5065366;28;20044;-82
2023/07/05 07:23:47;;;;;;;0.10;0.10;;;;;;;14.07;77.11;100386.06;5070873;28;20025;-82
2023/07/05 07:26:17;;;;;;;0.10;0.10;;;;;;;14.02;77.30;100385.38;5072910;28;20492;-81
2023/07/05 07:28:47;;;;;;;0.10;0.10;;;;;;;14.17;76.46;100408.72;5075863;28;20051;-82
2023/07/05 07:31:20;;;;;;;0.10;0.10;;;;;;;14.22;76.63;100412.03;5075116;28;20335;-82
2023/07/05 07:33:47;;;;;;;0.10;0.10;;;;;;;14.14;76.51;100456.78;5091868;28;20491;-81
2023/07/05 07:36:16;;;;;;;0.10;0.10;;;;;;;14.23;76.46;100471.50;5076303;28;20028;-81
2023/07/05 07:38:43;;;;;;;0.15;0.15;;;;;;;14.19;75.34;100443.28;5077656;28;20029;-82
2023/07/05 07:41:14;;;;;;;0.10;0.10;;;;;;;14.36;74.97;100456.75;5074320;28;20029;-80
2023/07/05 07:43:41;;;;;;;0.10;0.10;;;;;;;14.40;75.18;100468.16;5073562;28;20020;-81
2023/07/05 07:46:10;;;;;;;0.10;0.10;;;;;;;14.33;75.48;100456.00;5083813;28;20307;-81
2023/07/05 07:48:39;;;;;;;0.10;0.10;;;;;;;14.40;75.14;100486.81;5077582;28;20067;-81
2023/07/05 07:51:05;;;;;;;0.10;0.10;;;;;;;14.29;75.53;100489.06;5070377;28;20452;-80
2023/07/05 07:53:31;;;;;;;0.10;0.10;;;;;;;14.42;75.37;100506.28;5080561;28;20126;-79
2023/07/05 07:55:58;;;;;;;0.17;0.17;;;;;;;14.33;75.33;100526.19;5074316;28;20094;-84
2023/07/05 07:58:24;;;;;;;0.10;0.10;;;;;;;14.39;74.95;100525.06;5087211;28;20040;-83
2023/07/05 08:00:51;;;;;;;2.85;1.50;;;;;;;14.32;75.22;100512.94;5098585;28;20042;-82
2023/07/05 08:03:17;;;;;;;0.10;0.10;;;;;;;14.35;75.58;100515.47;5095037;28;20020;-80
2023/07/05 08:05:49;;;;;;;0.10;0.10;;;;;;;14.19;76.35;100533.88;5088746;28;20016;-80
2023/07/05 08:08:15;;;;;;;0.10;0.10;;;;;;;14.24;75.83;100537.22;5061704;28;20036;-80
2023/07/05 08:10:41;;;;;;;0.10;0.10;;;;;;;14.07;75.80;100540.56;5066527;28;20044;-81
2023/07/05 08:13:07;;;;;;;0.10;0.10;;;;;;;14.18;74.82;100554.31;5057640;28;20462;-83
2023/07/05 08:15:33;;;;;;;0.57;0.57;;;;;;;13.94;75.58;100576.59;5082403;28;20109;-82
2023/07/05 08:17:59;;;;;;;0.10;0.10;;;;;;;13.84;75.91;100554.75;5096167;28;20024;-83
2023/07/05 08:20:26;;;;;;;0.10;0.10;;;;;;;13.78;76.27;100542.53;5089103;28;20028;-82
2023/07/05 08:22:52;;;;;;;0.10;0.10;;;;;;;13.68;76.45;100552.69;5077549;28;20085;-81
2023/07/05 08:25:18;;;;;;;1.65;1.55;;;;;;;13.70;77.18;100573.94;5079285;28;20100;-83
2023/07/05 08:27:44;;;;;;;0.20;0.20;;;;;;;13.90;76.70;100558.03;5082503;28;20124;-83
2023/07/05 08:30:10;;;;;;;0.10;0.10;;;;;;;14.03;76.83;100593.09;5081773;28;20048;-83
2023/07/05 08:32:37;;;;;;;0.13;0.13;;;;;;;14.07;76.59;100641.78;5080513;28;20020;-81
2023/07/05 08:35:04;;;;;;;0.17;0.17;;;;;;;13.94;75.99;100636.03;5081704;28;20082;-81
2023/07/05 08:37:30;;;;;;;0.10;0.10;;;;;;;13.69;76.02;100618.31;5082045;28;20390;-82
2023/07/05 08:39:56;;;;;;;0.10;0.10;;;;;;;13.67;76.37;100627.28;5075630;28;20522;-83
2023/07/05 08:42:34;;;;;;;0.20;0.20;;;;;;;13.63;76.31;100625.66;5082714;28;20052;-82
2023/07/05 08:45:24;;;;;;;0.20;0.20;;;;;;;13.88;76.41;100639.81;5079265;28;20025;-81
2023/07/05 08:47:54;;;;;;;0.10;0.10;;;;;;;13.95;76.20;100645.78;5079826;28;20020;-79
2023/07/05 08:53:05;;;;;;;0.10;0.10;;;;;;;14.42;76.42;100641.34;5085728;27;20355;-77
2023/07/05 08:58:25;;;;;;;0.00;0.00;;;;;;;14.92;76.72;100661.63;5147845;27;20181;-80
2023/07/05 09:00:57;;;;;;;0.10;0.10;;;;;;;15.10;77.27;100652.84;5139058;27;20098;-79
2023/07/05 09:03:28;;;;;;;;;;;;;;;15.33;76.11;100673.22;5165327;27;20023;-79
2023/07/05 09:06:09;;;;;;;0.30;0.30;;;;;;;15.51;75.54;100666.22;5165369;27;19907;-78
2023/07/05 09:11:25;;;;;;;1.25;0.32;;;;;;;15.99;73.96;100677.50;5106850;27;20364;-78
2023/07/05 09:14:21;;;;;;;0.10;0.10;;;;;;;15.89;72.71;100694.88;5112850;28;20084;-78
2023/07/05 09:16:59;;;;;;;0.20;0.20;;;;;;;16.00;72.19;100722.00;5126379;28;20562;-78
2023/07/05 09:19:44;;;;;;;0.05;0.05;;;;;;;16.05;72.04;100719.13;5126017;28;20095;-78
2023/07/05 09:22:14;;;;;;;0.10;0.10;;;;;;;16.14;71.80;100723.19;5095027;28;20024;-78
2023/07/05 09:24:41;;;;;;;0.10;0.10;;;;;;;16.13;71.56;100722.28;5121964;28;20024;-78
2023/07/05 09:27:16;;;;;;;0.00;0.00;;;;;;;16.06;71.21;100744.03;5121495;28;20055;-78
2023/07/05 09:29:50;;;;;;;0.10;0.10;;;;;;;16.09;70.79;100751.94;5120111;28;20439;-78
2023/07/05 09:32:22;;;;;;;0.10;0.10;;;;;;;16.13;70.75;100754.38;5098703;28;20035;-79
2023/07/05 09:37:30;;;;;;;0.10;0.10;;;;;;;16.26;69.63;100759.16;5116095;27;20405;-80
2023/07/05 09:40:19;;;;;;;1.65;1.13;;;;;;;16.37;69.81;100770.25;5114841;28;20032;-77
2023/07/05 09:45:26;;;;;;;0.10;0.10;;;;;;;16.44;68.38;100777.06;5118605;27;20401;-79
2023/07/05 09:47:59;;;;;;;0.45;0.45;;;;;;;16.76;68.94;100805.91;5126015;28;20096;-80
2023/07/05 09:50:25;;;;;;;0.10;0.10;;;;;;;16.90;68.79;100791.91;5119899;28;20028;-80
2023/07/05 09:52:58;;;;;;;0.20;0.20;;;;;;;17.03;67.34;100801.09;5102651;28;20028;-79
2023/07/05 09:55:26;;;;;;;0.10;0.10;;;;;;;17.33;66.29;100778.28;5103428;28;20047;-79
2023/07/05 09:57:53;;;;;;;0.05;0.05;;;;;;;17.44;65.76;100819.66;5102411;28;20024;-78
2023/07/05 10:00:23;;;;;;;0.65;0.65;;;;;;;17.31;65.41;100805.16;5100017;28;20180;-79
2023/07/05 10:02:52;;;;;;;0.10;0.10;;;;;;;17.42;65.75;100797.44;5104224;28;20061;-78
2023/07/05 10:05:27;;;;;;;0.30;0.30;;;;;;;17.18;65.63;100838.81;5104833;28;20028;-79
2023/07/05 10:07:58;;;;;;;0.32;0.32;;;;;;;17.16;64.56;100829.97;5103350;28;20075;-78
2023/07/05 10:10:32;;;;;;;0.10;0.10;;;;;;;17.41;65.43;100830.53;5104340;28;20032;-78
2023/07/05 10:13:03;;;;;;;0.20;0.20;;;;;;;17.33;64.35;100832.69;5103093;28;20020;-79
2023/07/05 10:15:30;;;;;;;0.10;0.10;;;;;;;17.45;64.49;100826.75;5103940;28;20036;-80
2023/07/05 10:17:57;;;;;;;0.10;0.10;;;;;;;17.77;64.52;100834.16;5104220;28;20017;-78
2023/07/05 10:25:41;;;;;;;0.20;0.20;;;;;;;18.03;62.83;100864.13;5123442;27;20852;-78
2023/07/05 10:28:12;;;;;;;0.00;0.00;;;;;;;18.14;62.35;100883.22;5124061;28;20084;-78
2023/07/05 10:31:00;;;;;;;0.20;0.20;;;;;;;18.13;60.66;100880.63;5120948;28;20114;-78
2023/07/05 10:33:29;;;;;;;0.17;0.17;;;;;;;18.15;60.74;100884.97;5110872;28;20064;-78
2023/07/05 10:36:03;;;;;;;0.38;0.38;;;;;;;17.89;62.04;100899.66;5101991;28;20080;-79
2023/07/05 10:41:24;;;;;;;2.10;0.90;;;;;;;18.33;62.42;100898.38;5113759;27;20420;-79
2023/07/05 10:46:35;;;;;;;0.20;0.20;;;;;;;18.58;58.89;100908.72;5108305;27;20507;-82
2023/07/05 10:49:05;;;;;;;0.43;0.43;;;;;;;18.67;58.69;100921.63;5118578;28;20038;-83
2023/07/05 10:51:37;;;;;;;0.10;0.10;;;;;;;18.79;58.72;100909.38;5113801;28;20044;-83
2023/07/05 10:54:27;;;;;;;1.42;1.40;;;;;;;18.83;57.91;100924.38;5107973;28;20028;-82
2023/07/05 10:56:54;;;;;;;0.57;0.57;;;;;;;19.02;58.26;100920.72;5102954;28;20126;-82
2023/07/05 10:59:43;;;;;;;0.10;0.10;;;;;;;19.03;56.35;100946.63;5111421;28;20028;-82
2023/07/05 11:04:52;;;;;;;0.17;0.17;;;;;;;18.96;57.49;100934.47;5113289;27;20358;-79
2023/07/05 11:07:20;;;;;;;0.30;0.30;;;;;;;19.11;57.21;100946.22;5106653;28;20052;-79
2023/07/05 11:09:48;;;;;;;0.93;0.40;;;;;;;19.23;57.26;100945.53;5118560;28;20051;-79
2023/07/05 11:12:30;;;;;;;0.10;0.10;;;;;;;19.55;55.40;100949.13;5119057;28;20445;-79
2023/07/05 11:14:58;;;;;;;;;;;;;;;19.65;53.48;100987.13;5112336;28;20053;-79
2023/07/05 11:17:31;;;;;;;0.08;0.08;;;;;;;19.49;53.07;100948.59;5109730;28;19918;-79
2023/07/05 11:19:57;;;;;;;0.10;0.10;;;;;;;19.68;54.05;100960.03;5116427;28;20047;-79
2023/07/05 11:22:37;;;;;;;1.17;0.68;;;;;;;19.89;53.83;100978.66;5112225;28;20091;-80
2023/07/05 11:25:04;;;;;;;0.00;0.00;;;;;;;19.86;53.34;100981.50;5102723;28;20047;-80
2023/07/05 11:30:43;;;;;;;0.10;0.10;;;;;;;20.19;52.90;100991.28;5064025;28;20138;-79
2023/07/05 11:35:50;;;;;;;0.10;0.10;;;;;;;20.59;53.01;100994.31;5073351;28;20397;-80
2023/07/05 11:41:32;;;;;;;0.65;0.65;;;;;;;21.02;50.70;101007.00;5110452;27;1236746;-79
2023/07/05 11:44:04;;;;;;;0.22;0.22;;;;;;;21.18;50.45;101017.69;5125045;28;20043;-79
2023/07/05 11:46:48;;;;;;;0.38;0.38;;;;;;;21.41;50.09;101018.09;5130546;27;20042;-80
2023/07/05 11:57:40;;;;;;;0.10;0.10;;;;;;;21.42;47.69;101034.19;5121065;27;20388;-80
2023/07/05 12:00:18;;;;;;;0.43;0.43;;;;;;;21.47;46.35;101023.97;5126421;27;20031;-78
2023/07/05 12:02:59;;;;;;;0.10;0.10;;;;;;;21.24;45.83;101044.28;5109198;28;20027;-79
2023/07/05 12:05:29;;;;;;;0.10;0.10;;;;;;;21.16;47.20;101035.81;5104712;27;20032;-79
2023/07/05 12:08:04;;;;;;;0.00;0.00;;;;;;;21.19;48.01;101050.94;5104291;28;20020;-81
2023/07/05 12:10:34;;;;;;;0.10;0.10;;;;;;;20.97;47.70;101045.03;5100027;28;20486;-78
2023/07/05 12:13:02;;;;;;;0.20;0.20;;;;;;;20.81;48.52;101052.25;5094321;28;20028;-79
2023/07/05 12:15:28;;;;;;;0.52;0.52;;;;;;;20.69;49.78;101054.69;5097037;28;20097;-80
2023/07/05 12:17:55;;;;;;;0.10;0.10;;;;;;;20.55;49.66;101057.38;5104238;28;20032;-80
2023/07/05 12:20:42;;;;;;;0.00;0.00;;;;;;;20.55;48.90;101049.28;5095723;28;20055;-80
2023/07/05 12:23:13;;;;;;;17.85;2.35;;;;;;;20.31;49.59;101082.06;5102223;28;20027;-80
2023/07/05 12:25:41;;;;;;;0.10;0.10;;;;;;;20.16;50.85;101082.91;5099957;28;20083;-80
2023/07/05 12:28:27;;;;;;;0.17;0.17;;;;;;;20.42;50.35;101076.03;5103779;28;20024;-80
2023/07/05 12:30:56;;;;;;;0.13;0.13;;;;;;;20.73;50.89;101076.09;5110039;28;20027;-80
2023/07/05 12:33:26;;;;;;;0.47;0.25;;;;;;;20.88;50.24;101098.56;5115234;27;20084;-80
2023/07/05 12:36:11;;;;;;;0.00;0.00;;;;;;;20.89;48.91;101105.69;5141325;27;20058;-80
2023/07/05 12:38:39;;;;;;;0.00;0.00;;;;;;;21.00;48.63;101081.69;5123980;27;20502;-78
2023/07/05 12:41:13;;;;;;;0.63;0.63;;;;;;;21.03;48.72;101116.50;5129842;27;20037;-79